createdAt,value
2016-11-25T00:01:09.015Z,0
2016-11-25T00:02:20.007Z,0
2016-11-25T00:03:31.011Z,0
2016-11-25T00:04:42.005Z,0
2016-11-25T00:05:53.061Z,0
2016-11-25T00:07:04.055Z,0
2016-11-25T00:08:15.467Z,0
2016-11-25T00:09:26.684Z,0
2016-11-25T00:10:37.680Z,0
2016-11-25T00:11:48.735Z,0
2016-11-25T00:12:59.736Z,0
2016-11-25T00:14:10.935Z,0
2016-11-25T00:15:21.929Z,0
2016-11-25T00:16:32.929Z,0
2016-11-25T00:17:44.177Z,0
2016-11-25T00:18:55.183Z,0
2016-11-25T00:20:06.381Z,0
2016-11-25T00:21:17.574Z,0
2016-11-25T00:22:28.575Z,0
2016-11-25T00:23:39.848Z,0
2016-11-25T00:24:50.843Z,0
2016-11-25T00:26:01.840Z,0
2016-11-25T00:27:12.833Z,0
2016-11-25T00:28:23.827Z,0
2016-11-25T00:29:35.072Z,0
2016-11-25T00:30:46.274Z,0
2016-11-25T00:31:57.282Z,0
2016-11-25T00:33:08.294Z,0
2016-11-25T00:34:19.485Z,0
2016-11-25T00:35:30.535Z,0
2016-11-25T00:36:41.530Z,0
2016-11-25T00:37:52.730Z,0
2016-11-25T00:39:03.760Z,0
2016-11-25T00:40:14.764Z,0
2016-11-25T00:41:25.801Z,0
2016-11-25T00:42:36.803Z,0
2016-11-25T00:43:47.800Z,0
2016-11-25T00:44:58.991Z,0
2016-11-25T00:46:10.023Z,0
2016-11-25T00:47:21.064Z,0
2016-11-25T00:48:32.276Z,0
2016-11-25T00:49:43.467Z,0
2016-11-25T00:50:54.467Z,0
2016-11-25T00:52:05.470Z,0
2016-11-25T00:53:16.522Z,0
2016-11-25T00:54:27.523Z,0
2016-11-25T00:55:38.757Z,0
2016-11-25T00:56:49.758Z,0
2016-11-25T00:58:00.960Z,0
2016-11-25T00:59:12.002Z,0
2016-11-25T01:00:22.998Z,0
2016-11-25T01:01:34.006Z,0
2016-11-25T01:02:45.204Z,0
2016-11-25T01:03:56.212Z,0
2016-11-25T01:05:07.467Z,0
2016-11-25T01:06:18.468Z,0
2016-11-25T01:07:29.474Z,0
2016-11-25T01:08:40.473Z,0
2016-11-25T01:09:51.502Z,0
2016-11-25T01:11:02.550Z,0
2016-11-25T01:12:13.575Z,0
2016-11-25T01:13:24.575Z,0
2016-11-25T01:14:35.579Z,0
2016-11-25T01:15:46.582Z,0
2016-11-25T01:16:57.633Z,0
2016-11-25T01:18:08.643Z,0
2016-11-25T01:19:19.643Z,0
2016-11-25T01:20:30.635Z,0
2016-11-25T01:21:41.857Z,0
2016-11-25T01:22:53.105Z,0
2016-11-25T01:24:04.109Z,0
2016-11-25T01:25:15.310Z,0
2016-11-25T01:26:26.315Z,0
2016-11-25T01:27:37.316Z,0
2016-11-25T01:28:48.397Z,0
2016-11-25T01:29:59.390Z,0
2016-11-25T01:31:10.398Z,0
2016-11-25T01:32:21.597Z,0
2016-11-25T01:33:32.801Z,0
2016-11-25T01:34:43.884Z,0
2016-11-25T01:35:54.887Z,0
2016-11-25T01:37:05.921Z,0
2016-11-25T01:38:16.919Z,0
2016-11-25T01:39:27.930Z,0
2016-11-25T01:40:39.005Z,0
2016-11-25T01:41:50.204Z,0
2016-11-25T01:43:01.203Z,0
2016-11-25T01:44:12.238Z,0
2016-11-25T01:45:23.432Z,0
2016-11-25T01:46:34.479Z,0
2016-11-25T01:47:45.472Z,0
2016-11-25T01:48:56.464Z,0
2016-11-25T01:50:07.680Z,0
2016-11-25T01:51:18.683Z,0
2016-11-25T01:52:29.739Z,0
2016-11-25T01:53:40.741Z,0
2016-11-25T01:54:51.942Z,0
2016-11-25T01:56:03.147Z,0
2016-11-25T01:57:14.139Z,0
2016-11-25T01:58:25.188Z,0
2016-11-25T01:59:36.190Z,0
2016-11-25T02:00:47.222Z,0
2016-11-25T02:01:58.256Z,0
2016-11-25T02:03:09.493Z,0
2016-11-25T02:04:20.775Z,0
2016-11-25T02:05:31.800Z,0
2016-11-25T02:06:43.021Z,0
2016-11-25T02:07:54.048Z,0
2016-11-25T02:09:05.312Z,0
2016-11-25T02:10:16.391Z,0
2016-11-25T02:11:27.430Z,0
2016-11-25T02:12:38.456Z,0
2016-11-25T02:13:49.698Z,0
2016-11-25T02:15:01.130Z,0
2016-11-25T02:16:12.216Z,0
2016-11-25T02:17:23.280Z,0
2016-11-25T02:18:34.305Z,0
2016-11-25T02:19:45.345Z,0
2016-11-25T02:20:56.573Z,0
2016-11-25T02:22:07.643Z,0
2016-11-25T02:23:18.870Z,0
2016-11-25T02:24:29.896Z,0
2016-11-25T02:25:40.924Z,0
2016-11-25T02:26:51.949Z,0
2016-11-25T02:28:03.019Z,0
2016-11-25T02:29:14.037Z,0
2016-11-25T02:30:25.069Z,0
2016-11-25T02:31:36.304Z,0
2016-11-25T02:32:47.344Z,0
2016-11-25T02:33:58.626Z,0
2016-11-25T02:35:09.651Z,0
2016-11-25T02:36:20.872Z,0
2016-11-25T02:37:31.907Z,0
2016-11-25T02:38:42.930Z,0
2016-11-25T02:39:54.011Z,0
2016-11-25T02:41:05.034Z,0
2016-11-25T02:42:16.057Z,0
2016-11-25T02:43:27.086Z,0
2016-11-25T02:44:38.314Z,0
2016-11-25T02:45:49.599Z,0
2016-11-25T02:47:00.621Z,0
2016-11-25T02:48:11.648Z,0
2016-11-25T02:49:22.664Z,0
2016-11-25T02:50:33.711Z,0
2016-11-25T02:51:44.799Z,0
2016-11-25T02:52:55.853Z,0
2016-11-25T02:54:06.886Z,0
2016-11-25T02:55:17.918Z,0
2016-11-25T02:56:28.948Z,0
2016-11-25T02:57:40.029Z,0
2016-11-25T02:58:51.257Z,0
2016-11-25T03:00:02.289Z,0
2016-11-25T03:01:13.522Z,0
2016-11-25T03:02:24.549Z,0
2016-11-25T03:03:35.633Z,0
2016-11-25T03:04:46.846Z,0
2016-11-25T03:05:58.095Z,0
2016-11-25T03:07:09.127Z,0
2016-11-25T03:08:20.154Z,0
2016-11-25T03:09:31.233Z,0
2016-11-25T03:10:42.271Z,0
2016-11-25T03:11:53.535Z,0
2016-11-25T03:13:04.575Z,0
2016-11-25T03:14:15.593Z,0
2016-11-25T03:15:26.655Z,0
2016-11-25T03:16:37.685Z,0
2016-11-25T03:17:48.704Z,0
2016-11-25T03:18:59.737Z,0
2016-11-25T03:20:10.768Z,0
2016-11-25T03:21:21.876Z,0
2016-11-25T03:22:33.110Z,0
2016-11-25T03:23:44.340Z,0
2016-11-25T03:24:55.441Z,0
2016-11-25T03:26:06.505Z,0
2016-11-25T03:27:17.769Z,0
2016-11-25T03:28:28.792Z,0
2016-11-25T03:29:39.817Z,0
2016-11-25T03:30:50.887Z,0
2016-11-25T03:32:01.906Z,0
2016-11-25T03:33:13.012Z,0
2016-11-25T03:34:24.050Z,0
2016-11-25T03:35:35.293Z,0
2016-11-25T03:36:46.325Z,0
2016-11-25T03:37:57.361Z,0
2016-11-25T03:39:08.636Z,0
2016-11-25T03:40:19.668Z,0
2016-11-25T03:41:30.686Z,0
2016-11-25T03:42:41.924Z,0
2016-11-25T03:43:53.172Z,0
2016-11-25T03:45:04.236Z,0
2016-11-25T03:46:15.262Z,0
2016-11-25T03:47:26.287Z,0
2016-11-25T03:48:37.316Z,0
2016-11-25T03:49:48.351Z,0
2016-11-25T03:50:59.426Z,0
2016-11-25T03:52:10.674Z,0
2016-11-25T03:53:21.703Z,0
2016-11-25T03:54:32.737Z,0
2016-11-25T03:55:43.969Z,0
2016-11-25T03:56:55.057Z,0
2016-11-25T03:58:06.288Z,0
2016-11-25T03:59:17.509Z,0
2016-11-25T04:00:28.542Z,0
2016-11-25T04:01:39.571Z,0
2016-11-25T04:02:50.664Z,0
2016-11-25T04:04:01.899Z,0
2016-11-25T04:05:12.924Z,0
2016-11-25T04:06:23.950Z,0
2016-11-25T04:07:34.973Z,0
2016-11-25T04:08:46.048Z,0
2016-11-25T04:09:57.084Z,0
2016-11-25T04:11:08.107Z,0
2016-11-25T04:12:19.134Z,0
2016-11-25T04:13:30.150Z,0
2016-11-25T04:14:41.244Z,0
2016-11-25T04:15:52.265Z,0
2016-11-25T04:17:03.295Z,0
2016-11-25T04:18:14.320Z,0
2016-11-25T04:19:25.357Z,0
2016-11-25T04:20:36.460Z,0
2016-11-25T04:21:47.516Z,0
2016-11-25T04:22:58.744Z,0
2016-11-25T04:24:09.758Z,0
2016-11-25T04:25:20.783Z,0
2016-11-25T04:26:31.860Z,0
2016-11-25T04:27:42.912Z,0
2016-11-25T04:28:53.965Z,0
2016-11-25T04:30:05.007Z,0
2016-11-25T04:31:16.032Z,0
2016-11-25T04:32:27.111Z,0
2016-11-25T04:33:38.128Z,0
2016-11-25T04:34:49.374Z,0
2016-11-25T04:36:00.389Z,0
2016-11-25T04:37:11.425Z,0
2016-11-25T04:38:22.495Z,0
2016-11-25T04:39:33.760Z,0
2016-11-25T04:40:44.784Z,0
2016-11-25T04:41:55.797Z,0
2016-11-25T04:43:06.822Z,0
2016-11-25T04:44:17.900Z,0
2016-11-25T04:45:28.931Z,0
2016-11-25T04:46:39.970Z,0
2016-11-25T04:47:51.002Z,0
2016-11-25T04:49:02.241Z,0
2016-11-25T04:50:13.718Z,0
2016-11-25T04:51:24.740Z,0
2016-11-25T04:52:35.769Z,0
2016-11-25T04:53:46.797Z,0
2016-11-25T04:54:57.821Z,0
2016-11-25T04:56:08.897Z,0
2016-11-25T04:57:19.926Z,0
2016-11-25T04:58:31.163Z,0
2016-11-25T04:59:42.185Z,0
2016-11-25T05:00:53.408Z,0
2016-11-25T05:02:04.478Z,0
2016-11-25T05:03:15.525Z,0
2016-11-25T05:04:26.755Z,0
2016-11-25T05:05:37.814Z,0
2016-11-25T05:06:49.035Z,0
2016-11-25T05:08:00.101Z,0
2016-11-25T05:09:11.332Z,0
2016-11-25T05:10:22.371Z,0
2016-11-25T05:11:33.407Z,0
2016-11-25T05:12:44.431Z,0
2016-11-25T05:13:55.505Z,0
2016-11-25T05:15:06.522Z,0
2016-11-25T05:16:17.549Z,0
2016-11-25T05:17:28.592Z,0
2016-11-25T05:18:39.656Z,0
2016-11-25T05:19:50.736Z,0
2016-11-25T05:21:01.760Z,0
2016-11-25T05:22:12.780Z,0
2016-11-25T05:23:23.834Z,0
2016-11-25T05:24:34.863Z,0
2016-11-25T05:25:45.952Z,0
2016-11-25T05:26:56.971Z,0
2016-11-25T05:28:08.009Z,0
2016-11-25T05:29:19.033Z,0
2016-11-25T05:30:30.073Z,0
2016-11-25T05:31:41.147Z,0
2016-11-25T05:32:52.373Z,0
2016-11-25T05:34:03.608Z,0
2016-11-25T05:35:14.619Z,0
2016-11-25T05:36:25.646Z,0
2016-11-25T05:37:36.722Z,0
2016-11-25T05:38:47.953Z,0
2016-11-25T05:39:58.982Z,0
2016-11-25T05:41:10.007Z,0
2016-11-25T05:42:21.066Z,0
2016-11-25T05:43:32.140Z,0
2016-11-25T05:44:43.186Z,0
2016-11-25T05:45:54.222Z,0
2016-11-25T05:47:05.256Z,0
2016-11-25T05:48:16.285Z,0
2016-11-25T05:49:27.361Z,0
2016-11-25T05:50:38.382Z,0
2016-11-25T05:51:49.820Z,0
2016-11-25T05:53:00.884Z,0
2016-11-25T05:54:11.910Z,0
2016-11-25T05:55:23.001Z,0
2016-11-25T05:56:34.037Z,0
2016-11-25T05:57:45.249Z,0
2016-11-25T05:58:56.270Z,0
2016-11-25T06:00:07.294Z,0
2016-11-25T06:01:18.391Z,0
2016-11-25T06:02:29.421Z,0
2016-11-25T06:03:40.435Z,0
2016-11-25T06:04:51.467Z,0
2016-11-25T06:06:02.693Z,0
2016-11-25T06:07:13.807Z,0
2016-11-25T06:08:24.842Z,0
2016-11-25T06:09:36.063Z,0
2016-11-25T06:10:47.082Z,0
2016-11-25T06:11:58.105Z,0
2016-11-25T06:13:09.207Z,0
2016-11-25T06:14:20.228Z,0
2016-11-25T06:15:31.246Z,0
2016-11-25T06:16:42.266Z,0
2016-11-25T06:17:53.309Z,0
2016-11-25T06:19:04.573Z,0
2016-11-25T06:20:15.792Z,0
2016-11-25T06:21:26.832Z,0
2016-11-25T06:22:37.886Z,0
2016-11-25T06:23:48.905Z,0
2016-11-25T06:24:59.984Z,4
2016-11-25T06:26:11.015Z,4
2016-11-25T06:27:22.041Z,0
2016-11-25T06:28:33.055Z,4
2016-11-25T06:29:44.077Z,4
2016-11-25T06:30:55.154Z,4
2016-11-25T06:32:06.191Z,4
2016-11-25T06:33:17.209Z,4
2016-11-25T06:34:28.455Z,8
2016-11-25T06:35:39.497Z,8
2016-11-25T06:36:50.586Z,12
2016-11-25T06:38:01.610Z,12
2016-11-25T06:39:12.849Z,16
2016-11-25T06:40:23.891Z,16
2016-11-25T06:41:34.925Z,24
2016-11-25T06:42:46.224Z,28
2016-11-25T06:43:57.254Z,32
2016-11-25T06:45:08.288Z,40
2016-11-25T06:46:19.520Z,48
2016-11-25T06:47:30.585Z,60
2016-11-25T06:48:41.669Z,72
2016-11-25T06:49:52.708Z,84
2016-11-25T06:51:03.738Z,104
2016-11-25T06:52:14.773Z,124
2016-11-25T06:53:25.821Z,140
2016-11-25T06:54:37.105Z,152
2016-11-25T06:55:48.129Z,180
2016-11-25T06:56:59.167Z,208
2016-11-25T06:58:10.197Z,240
2016-11-25T06:59:21.408Z,268
2016-11-25T07:00:32.480Z,292
2016-11-25T07:01:43.518Z,316
2016-11-25T07:02:54.546Z,352
2016-11-25T07:04:05.589Z,384
2016-11-25T07:05:16.602Z,424
2016-11-25T07:06:27.680Z,464
2016-11-25T07:07:38.711Z,512
2016-11-25T07:08:49.745Z,564
2016-11-25T07:10:00.966Z,624
2016-11-25T07:11:11.997Z,688
2016-11-25T07:12:23.066Z,756
2016-11-25T07:13:34.084Z,824
2016-11-25T07:14:45.144Z,900
2016-11-25T07:15:56.182Z,976
2016-11-25T07:17:07.200Z,1056
2016-11-25T07:18:18.269Z,1140
2016-11-25T07:19:29.286Z,1228
2016-11-25T07:20:44.105Z,1320
2016-11-25T07:21:55.331Z,1412
2016-11-25T07:23:06.371Z,1500
2016-11-25T07:24:17.672Z,1596
2016-11-25T07:25:28.688Z,1692
2016-11-25T07:26:39.701Z,1784
2016-11-25T07:27:50.719Z,1888
2016-11-25T07:29:01.760Z,1984
2016-11-25T07:30:12.833Z,2088
2016-11-25T07:31:23.872Z,2200
2016-11-25T07:32:34.907Z,2296
2016-11-25T07:33:45.947Z,2400
2016-11-25T07:34:56.971Z,2500
2016-11-25T07:36:08.256Z,2616
2016-11-25T07:37:19.273Z,2736
2016-11-25T07:38:30.298Z,2860
2016-11-25T07:39:41.324Z,3072
2016-11-25T07:40:52.738Z,3184
2016-11-25T07:42:03.817Z,3224
2016-11-25T07:43:14.845Z,3316
2016-11-25T07:44:25.874Z,3436
2016-11-25T07:45:36.918Z,3576
2016-11-25T07:46:47.952Z,4052
2016-11-25T07:47:59.027Z,5192
2016-11-25T07:49:10.077Z,6464
2016-11-25T07:50:21.105Z,8112
2016-11-25T07:51:32.142Z,7964
2016-11-25T07:52:43.158Z,7172
2016-11-25T07:53:54.228Z,6080
2016-11-25T07:55:05.243Z,6372
2016-11-25T07:56:16.464Z,5364
2016-11-25T07:57:27.719Z,5672
2016-11-25T07:58:38.939Z,5580
2016-11-25T07:59:50.023Z,5672
2016-11-25T08:01:01.051Z,7060
2016-11-25T08:02:12.087Z,11808
2016-11-25T08:03:23.104Z,9880
2016-11-25T08:04:34.143Z,8940
2016-11-25T08:05:45.210Z,8052
2016-11-25T08:06:56.240Z,7016
2016-11-25T08:08:07.265Z,6304
2016-11-25T08:09:18.287Z,8156
2016-11-25T08:10:29.527Z,10708
2016-11-25T08:11:40.608Z,9208
2016-11-25T08:12:52.052Z,8928
2016-11-25T08:14:03.068Z,10152
2016-11-25T08:15:14.091Z,10380
2016-11-25T08:16:25.113Z,8692
2016-11-25T08:17:36.200Z,8152
2016-11-25T08:18:47.428Z,7780
2016-11-25T08:19:58.671Z,8336
2016-11-25T08:21:09.697Z,8084
2016-11-25T08:22:20.932Z,7992
2016-11-25T08:23:32.011Z,10032
2016-11-25T08:24:43.043Z,15328
2016-11-25T08:25:54.068Z,20128
2016-11-25T08:27:05.143Z,11728
2016-11-25T08:28:16.168Z,8228
2016-11-25T08:29:27.640Z,19840
2016-11-25T08:30:38.674Z,27616
2016-11-25T08:31:49.711Z,23840
2016-11-25T08:33:00.730Z,24576
2016-11-25T08:34:11.957Z,26976
2016-11-25T08:35:23.031Z,26176
2016-11-25T08:36:34.067Z,27136
2016-11-25T08:37:45.101Z,29344
2016-11-25T08:38:56.123Z,27712
2016-11-25T08:40:07.156Z,27680
2016-11-25T08:41:18.237Z,28448
2016-11-25T08:42:29.257Z,34624
2016-11-25T08:43:40.499Z,33344
2016-11-25T08:44:51.541Z,31200
2016-11-25T08:46:02.569Z,36032
2016-11-25T08:47:13.840Z,36256
2016-11-25T08:48:24.860Z,39456
2016-11-25T08:49:35.881Z,42208
2016-11-25T08:50:46.904Z,37888
2016-11-25T08:51:57.925Z,35232
2016-11-25T08:53:09.016Z,36512
2016-11-25T08:54:20.056Z,32800
2016-11-25T08:55:31.106Z,27616
2016-11-25T08:56:42.133Z,33056
2016-11-25T08:57:53.177Z,42816
2016-11-25T08:59:04.269Z,45632
2016-11-25T09:00:15.312Z,42080
2016-11-25T09:01:26.339Z,42144
2016-11-25T09:02:37.360Z,39168
2016-11-25T09:03:48.397Z,46528
2016-11-25T09:04:59.893Z,48640
2016-11-25T09:06:10.927Z,50592
2016-11-25T09:07:22.361Z,47008
2016-11-25T09:08:33.387Z,54368
2016-11-25T09:09:44.436Z,54944
2016-11-25T09:10:55.530Z,62016
2016-11-25T09:12:06.568Z,60480
2016-11-25T09:13:17.608Z,61152
2016-11-25T09:14:28.661Z,61792
2016-11-25T09:15:39.690Z,62304
2016-11-25T09:16:50.774Z,61408
2016-11-25T09:18:01.815Z,62208
2016-11-25T09:19:13.066Z,66784
2016-11-25T09:20:24.097Z,67712
2016-11-25T09:21:35.133Z,66720
2016-11-25T09:22:46.212Z,65056
2016-11-25T09:23:57.253Z,64096
2016-11-25T09:25:08.298Z,64000
2016-11-25T09:26:19.336Z,65696
2016-11-25T09:27:30.374Z,66432
2016-11-25T09:28:41.458Z,67232
2016-11-25T09:29:52.696Z,67456
2016-11-25T09:31:03.732Z,67744
2016-11-25T09:32:14.975Z,66816
2016-11-25T09:33:25.999Z,67296
2016-11-25T09:34:37.088Z,68480
2016-11-25T09:35:48.113Z,68928
2016-11-25T09:36:59.150Z,68608
2016-11-25T09:38:10.197Z,68896
2016-11-25T09:39:21.244Z,67200
2016-11-25T09:40:32.525Z,64576
2016-11-25T09:41:43.576Z,59168
2016-11-25T09:42:54.619Z,58112
2016-11-25T09:44:05.663Z,58720
2016-11-25T09:45:16.913Z,60256
2016-11-25T09:46:27.997Z,58112
2016-11-25T09:47:39.032Z,60640
2016-11-25T09:48:50.498Z,55648
2016-11-25T09:50:01.545Z,49952
2016-11-25T09:51:12.576Z,44672
2016-11-25T09:52:23.657Z,50176
2016-11-25T09:53:34.693Z,52384
2016-11-25T09:54:45.939Z,53760
2016-11-25T09:55:56.975Z,51648
2016-11-25T09:57:08.045Z,51680
2016-11-25T09:58:19.140Z,47680
2016-11-25T09:59:30.375Z,43680
2016-11-25T10:00:41.415Z,47296
2016-11-25T10:01:52.453Z,49600
2016-11-25T10:03:03.490Z,53792
2016-11-25T10:04:14.575Z,54464
2016-11-25T10:05:25.610Z,52128
2016-11-25T10:06:36.656Z,53376
2016-11-25T10:07:47.695Z,52736
2016-11-25T10:08:58.940Z,52480
2016-11-25T10:10:10.234Z,54080
2016-11-25T10:11:21.268Z,55104
2016-11-25T10:12:32.528Z,56640
2016-11-25T10:13:43.564Z,56768
2016-11-25T10:14:54.594Z,56032
2016-11-25T10:16:05.688Z,53504
2016-11-25T10:17:16.724Z,54080
2016-11-25T10:18:27.772Z,51936
2016-11-25T10:19:38.815Z,52128
2016-11-25T10:20:49.861Z,54848
2016-11-25T10:22:00.941Z,55968
2016-11-25T10:23:11.989Z,57088
2016-11-25T10:24:23.042Z,58752
2016-11-25T10:25:34.081Z,54912
2016-11-25T10:26:45.117Z,53920
2016-11-25T10:27:56.228Z,52480
2016-11-25T10:29:07.272Z,51424
2016-11-25T10:30:18.314Z,47200
2016-11-25T10:31:29.354Z,49856
2016-11-25T10:32:40.400Z,50816
2016-11-25T10:33:51.499Z,48032
2016-11-25T10:35:02.543Z,47008
2016-11-25T10:36:13.593Z,45472
2016-11-25T10:37:24.629Z,46848
2016-11-25T10:38:35.674Z,46016
2016-11-25T10:39:46.774Z,45152
2016-11-25T10:40:57.804Z,46144
2016-11-25T10:42:09.047Z,44448
2016-11-25T10:43:20.093Z,45056
2016-11-25T10:44:31.140Z,42912
2016-11-25T10:45:42.427Z,41344
2016-11-25T10:46:53.457Z,41312
2016-11-25T10:48:04.526Z,41440
2016-11-25T10:49:15.569Z,40576
2016-11-25T10:50:26.603Z,37184
2016-11-25T10:51:37.696Z,40544
2016-11-25T10:52:48.753Z,35136
2016-11-25T10:53:59.798Z,38240
2016-11-25T10:55:10.826Z,50176
2016-11-25T10:56:21.869Z,48160
2016-11-25T10:57:32.941Z,50592
2016-11-25T10:58:43.977Z,50848
2016-11-25T10:59:55.236Z,47040
2016-11-25T11:01:06.287Z,46144
2016-11-25T11:02:17.329Z,41312
2016-11-25T11:03:28.616Z,40896
2016-11-25T11:04:39.855Z,46464
2016-11-25T11:05:50.892Z,46400
2016-11-25T11:07:01.929Z,45760
2016-11-25T11:08:12.968Z,51296
2016-11-25T11:09:24.079Z,41984
2016-11-25T11:10:35.132Z,46560
2016-11-25T11:11:46.374Z,35232
2016-11-25T11:12:57.416Z,36352
2016-11-25T11:14:08.459Z,28544
2016-11-25T11:15:19.549Z,19840
2016-11-25T11:16:30.590Z,15712
2016-11-25T11:17:41.629Z,27232
2016-11-25T11:18:52.668Z,29824
2016-11-25T11:20:03.719Z,43488
2016-11-25T11:21:14.800Z,30016
2016-11-25T11:22:25.840Z,25280
2016-11-25T11:23:37.108Z,26176
2016-11-25T11:24:48.145Z,28512
2016-11-25T11:25:59.167Z,22784
2016-11-25T11:27:10.464Z,17888
2016-11-25T11:28:21.693Z,13876
2016-11-25T11:29:32.744Z,24352
2016-11-25T11:30:43.775Z,27872
2016-11-25T11:31:54.810Z,19104
2016-11-25T11:33:06.106Z,23808
2016-11-25T11:34:17.147Z,25696
2016-11-25T11:35:28.176Z,32224
2016-11-25T11:36:39.409Z,39200
2016-11-25T11:37:50.443Z,35104
2016-11-25T11:39:01.554Z,36960
2016-11-25T11:40:12.800Z,32832
2016-11-25T11:41:24.048Z,26496
2016-11-25T11:42:35.095Z,25472
2016-11-25T11:43:46.125Z,29184
2016-11-25T11:44:57.208Z,29120
2016-11-25T11:46:08.241Z,27008
2016-11-25T11:47:19.268Z,28992
2016-11-25T11:48:30.509Z,33312
2016-11-25T11:49:41.545Z,31936
2016-11-25T11:50:52.629Z,30144
2016-11-25T11:52:03.664Z,26624
2016-11-25T11:53:14.731Z,34400
2016-11-25T11:54:25.773Z,18912
2016-11-25T11:55:36.804Z,10744
2016-11-25T11:56:47.896Z,10344
2016-11-25T11:57:58.932Z,6616
2016-11-25T11:59:09.967Z,16392
2016-11-25T12:00:20.992Z,29024
2016-11-25T12:01:32.029Z,26688
2016-11-25T12:02:43.323Z,26240
2016-11-25T12:03:54.551Z,24096
2016-11-25T12:05:05.778Z,20960
2016-11-25T12:06:16.811Z,20384
2016-11-25T12:07:27.829Z,20832
2016-11-25T12:08:38.918Z,13464
2016-11-25T12:09:49.968Z,15444
2016-11-25T12:11:00.984Z,15716
2016-11-25T12:12:12.047Z,14968
2016-11-25T12:13:23.089Z,12848
2016-11-25T12:14:34.184Z,9608
2016-11-25T12:15:45.216Z,10900
2016-11-25T12:16:56.256Z,15240
2016-11-25T12:18:07.299Z,13432
2016-11-25T12:19:18.337Z,9584
2016-11-25T12:20:29.430Z,12332
2016-11-25T12:21:40.476Z,21888
2016-11-25T12:22:51.706Z,27040
2016-11-25T12:24:02.770Z,25504
2016-11-25T12:25:13.788Z,23904
2016-11-25T12:26:24.871Z,22112
2016-11-25T12:27:35.911Z,23584
2016-11-25T12:28:46.937Z,22656
2016-11-25T12:29:57.979Z,20416
2016-11-25T12:31:09.012Z,19744
2016-11-25T12:32:20.287Z,19936
2016-11-25T12:33:31.323Z,20320
2016-11-25T12:34:42.347Z,19680
2016-11-25T12:35:53.383Z,19584
2016-11-25T12:37:04.421Z,17472
2016-11-25T12:38:15.518Z,15272
2016-11-25T12:39:26.566Z,17440
2016-11-25T12:40:37.591Z,18560
2016-11-25T12:41:48.615Z,14776
2016-11-25T12:42:59.651Z,12644
2016-11-25T12:44:10.737Z,14912
2016-11-25T12:45:21.790Z,15936
2016-11-25T12:46:32.860Z,16960
2016-11-25T12:47:43.883Z,14176
2016-11-25T12:48:55.118Z,11952
2016-11-25T12:50:06.202Z,11632
2016-11-25T12:51:17.228Z,10152
2016-11-25T12:52:28.270Z,9808
2016-11-25T12:53:39.348Z,11192
2016-11-25T12:54:50.372Z,10244
2016-11-25T12:56:01.452Z,8308
2016-11-25T12:57:12.499Z,6760
2016-11-25T12:58:23.527Z,8832
2016-11-25T12:59:34.566Z,10776
2016-11-25T13:00:45.596Z,11000
2016-11-25T13:01:56.735Z,9028
2016-11-25T13:03:07.982Z,9228
2016-11-25T13:04:19.017Z,9484
2016-11-25T13:05:30.057Z,8144
2016-11-25T13:06:41.089Z,8964
2016-11-25T13:07:52.174Z,10796
2016-11-25T13:09:03.243Z,7844
2016-11-25T13:10:14.281Z,7864
2016-11-25T13:11:25.505Z,7332
2016-11-25T13:12:36.543Z,7840
2016-11-25T13:13:47.625Z,7204
2016-11-25T13:14:58.663Z,5896
2016-11-25T13:16:09.896Z,6896
2016-11-25T13:17:20.927Z,4796
2016-11-25T13:18:31.952Z,6600
2016-11-25T13:19:43.046Z,7204
2016-11-25T13:20:54.079Z,6212
2016-11-25T13:22:05.111Z,6256
2016-11-25T13:23:16.142Z,6904
2016-11-25T13:24:27.180Z,7216
2016-11-25T13:25:38.278Z,7112
2016-11-25T13:26:49.297Z,6760
2016-11-25T13:28:00.319Z,6708
2016-11-25T13:29:11.350Z,6136
2016-11-25T13:30:22.792Z,5152
2016-11-25T13:31:33.886Z,5504
2016-11-25T13:32:44.926Z,4764
2016-11-25T13:33:55.975Z,5056
2016-11-25T13:35:07.214Z,5572
2016-11-25T13:36:18.299Z,5436
2016-11-25T13:37:29.379Z,5144
2016-11-25T13:38:40.408Z,5028
2016-11-25T13:39:51.428Z,4008
2016-11-25T13:41:02.658Z,3524
2016-11-25T13:42:13.681Z,3488
2016-11-25T13:43:24.750Z,3456
2016-11-25T13:44:36.012Z,3468
2016-11-25T13:45:47.238Z,3828
2016-11-25T13:46:58.478Z,4196
2016-11-25T13:48:09.713Z,4160
2016-11-25T13:49:20.811Z,4168
2016-11-25T13:50:31.821Z,4016
2016-11-25T13:51:42.848Z,3808
2016-11-25T13:52:53.872Z,3720
2016-11-25T13:54:04.903Z,3488
2016-11-25T13:55:15.995Z,3308
2016-11-25T13:56:27.018Z,3320
2016-11-25T13:57:38.282Z,3320
2016-11-25T13:58:49.507Z,3404
2016-11-25T14:00:00.542Z,3320
2016-11-25T14:01:11.625Z,3112
2016-11-25T14:02:22.662Z,2888
2016-11-25T14:03:33.683Z,2808
2016-11-25T14:04:44.707Z,2776
2016-11-25T14:05:55.735Z,2756
2016-11-25T14:07:06.828Z,2736
2016-11-25T14:08:18.062Z,2688
2016-11-25T14:09:29.092Z,2668
2016-11-25T14:10:40.118Z,2636
2016-11-25T14:11:51.339Z,2596
2016-11-25T14:13:02.417Z,2568
2016-11-25T14:14:13.447Z,2516
2016-11-25T14:15:24.492Z,2500
2016-11-25T14:16:35.713Z,2476
2016-11-25T14:17:46.743Z,2432
2016-11-25T14:18:57.818Z,2388
2016-11-25T14:20:08.845Z,2352
2016-11-25T14:21:19.896Z,2316
2016-11-25T14:22:30.916Z,2280
2016-11-25T14:23:42.164Z,2232
2016-11-25T14:24:53.253Z,2200
2016-11-25T14:26:04.482Z,2156
2016-11-25T14:27:15.511Z,2120
2016-11-25T14:28:26.542Z,2092
2016-11-25T14:29:37.577Z,2064
2016-11-25T14:30:48.675Z,2036
2016-11-25T14:31:59.703Z,1992
2016-11-25T14:33:10.731Z,1956
2016-11-25T14:34:21.955Z,1916
2016-11-25T14:35:33.214Z,1868
2016-11-25T14:36:44.311Z,1832
2016-11-25T14:37:55.333Z,1780
2016-11-25T14:39:06.561Z,1724
2016-11-25T14:40:17.590Z,1664
2016-11-25T14:41:28.611Z,1616
2016-11-25T14:42:39.703Z,1584
2016-11-25T14:43:50.751Z,1544
2016-11-25T14:45:01.789Z,1508
2016-11-25T14:46:12.820Z,1480
2016-11-25T14:47:23.847Z,1440
2016-11-25T14:48:34.923Z,1404
2016-11-25T14:49:45.955Z,1360
2016-11-25T14:50:56.995Z,1324
2016-11-25T14:52:08.027Z,1292
2016-11-25T14:53:19.074Z,1256
2016-11-25T14:54:30.156Z,1220
2016-11-25T14:55:41.192Z,1184
2016-11-25T14:56:52.431Z,1152
2016-11-25T14:58:03.465Z,1112
2016-11-25T14:59:14.759Z,1076
2016-11-25T15:00:26.045Z,1040
2016-11-25T15:01:37.080Z,996
2016-11-25T15:02:48.306Z,956
2016-11-25T15:03:59.342Z,912
2016-11-25T15:05:10.568Z,864
2016-11-25T15:06:21.652Z,820
2016-11-25T15:07:32.674Z,776
2016-11-25T15:08:43.696Z,736
2016-11-25T15:09:54.730Z,692
2016-11-25T15:11:05.985Z,652
2016-11-25T15:12:17.062Z,608
2016-11-25T15:13:28.082Z,568
2016-11-25T15:14:39.123Z,532
2016-11-25T15:15:50.359Z,492
2016-11-25T15:17:01.381Z,460
2016-11-25T15:18:12.457Z,424
2016-11-25T15:19:23.482Z,392
2016-11-25T15:20:34.522Z,360
2016-11-25T15:21:45.547Z,332
2016-11-25T15:22:56.581Z,300
2016-11-25T15:24:08.173Z,276
2016-11-25T15:25:19.201Z,252
2016-11-25T15:26:30.250Z,232
2016-11-25T15:27:41.310Z,212
2016-11-25T15:28:52.332Z,200
2016-11-25T15:30:03.416Z,176
2016-11-25T15:31:14.459Z,160
2016-11-25T15:32:25.486Z,144
2016-11-25T15:33:36.518Z,124
2016-11-25T15:34:47.747Z,112
2016-11-25T15:35:59.023Z,96
2016-11-25T15:37:10.051Z,84
2016-11-25T15:38:21.076Z,68
2016-11-25T15:39:32.094Z,60
2016-11-25T15:40:43.118Z,52
2016-11-25T15:41:54.405Z,40
2016-11-25T15:43:05.431Z,36
2016-11-25T15:44:16.674Z,28
2016-11-25T15:45:27.713Z,24
2016-11-25T15:46:38.734Z,20
2016-11-25T15:47:49.828Z,16
2016-11-25T15:49:00.859Z,12
2016-11-25T15:50:11.882Z,12
2016-11-25T15:51:22.902Z,8
2016-11-25T15:52:33.945Z,4
2016-11-25T15:53:45.014Z,8
2016-11-25T15:54:56.036Z,4
2016-11-25T15:56:07.058Z,4
2016-11-25T15:57:18.093Z,4
2016-11-25T15:58:29.112Z,4
2016-11-25T15:59:40.209Z,0
2016-11-25T16:00:51.242Z,4
2016-11-25T16:02:02.276Z,4
2016-11-25T16:03:13.303Z,0
2016-11-25T16:04:24.367Z,0
2016-11-25T16:05:35.455Z,0
2016-11-25T16:06:46.479Z,0
2016-11-25T16:07:57.513Z,0
2016-11-25T16:09:08.543Z,0
2016-11-25T16:10:19.606Z,0
2016-11-25T16:11:30.687Z,0
2016-11-25T16:12:41.710Z,0
2016-11-25T16:13:52.726Z,0
2016-11-25T16:15:03.751Z,0
2016-11-25T16:16:14.784Z,0
2016-11-25T16:17:25.848Z,0
2016-11-25T16:18:36.872Z,0
2016-11-25T16:19:47.900Z,0
2016-11-25T16:20:58.932Z,0
2016-11-25T16:22:09.979Z,0
2016-11-25T16:23:21.047Z,0
2016-11-25T16:24:32.061Z,0